Main page
METAR-TAF:

METAR-TAF

Airports :

Cervia, Italy

Cervia Air Base

latitude: 44-13N, longitude: 012-18E, elevation: 6 m

Current weather observation

The report was made 19 minutes ago, at 21:55 UTC
Wind 3 kt from the Southwest
Temperature 24°C
Humidity 83%
Pressure 1010 hPa
Visibility 10 km or more
no clouds below 1500 m and no cumulonimbus

METAR: LIPC 192155Z 22003KT CAVOK 24/21 Q1010

Time: 00:14 (22:14 UTC)

Forecast

The report was made 2 hours and 14 minutes ago, at 20:00 UTC
Forecast valid from 19 at 21 UTC to 20 at 06 UTC
Wind 10 kt from the East/Southeast
Visibility 10 km or more
Scattered clouds at a height of 5000 ft
Temporary
from 19 at 21 UTC to 20 at 06 UTC
Visibility: 5000 m
Few clouds at a height of 2000 ft, Cumulonimbus.
Scattered clouds at a height of 4000 ft
thunderstorm, rain

TAF: LIPC 192000Z 1921/2006 11010KT 9999 SCT050 TEMPO 1921/2006 5000 TSRA FEW020CB SCT040

Weather observations and forecasts of more than 4000 airports (METAR and TAF reports).

The available stations are represented by yellow and red dots on the map.

Hover mouse over dot to see the name of the station.

Then click to see weather observations and forecasts.

To change the map : click on the green buttons with a black cross to zoom in, on the green button with a dash to zoom out, or on the green arrows for adjacent maps.


METAR-TAF: